createdAt,value
2018-05-09T00:00:45.443Z,88.20
2018-05-09T00:03:13.002Z,88.10
2018-05-09T00:05:40.559Z,89.70
2018-05-09T00:08:08.136Z,90.20
2018-05-09T00:10:35.677Z,90.50
2018-05-09T00:13:03.256Z,90.50
2018-05-09T00:15:31.557Z,90.30
2018-05-09T00:17:59.883Z,90.60
2018-05-09T00:20:27.436Z,90.60
2018-05-09T00:22:55.003Z,90.80
2018-05-09T00:25:23.341Z,90.70
2018-05-09T00:27:50.898Z,90.70
2018-05-09T00:30:18.445Z,90.80
2018-05-09T00:32:46.781Z,90.50
2018-05-09T00:35:15.100Z,90.40
2018-05-09T00:37:43.440Z,90.20
2018-05-09T00:40:10.983Z,90.20
2018-05-09T00:42:38.556Z,90.20
2018-05-09T00:45:06.119Z,90.70
2018-05-09T00:47:33.694Z,91.20
2018-05-09T00:50:02.016Z,92.20
2018-05-09T00:52:29.598Z,92.20
2018-05-09T00:54:57.171Z,92.30
2018-05-09T00:57:24.734Z,92.30
2018-05-09T00:59:52.292Z,92.60
2018-05-09T01:02:19.867Z,93.10
2018-05-09T01:04:47.409Z,93.10
2018-05-09T01:07:14.984Z,93.60
2018-05-09T01:09:42.548Z,94.10
2018-05-09T01:12:10.108Z,94.40
2018-05-09T01:14:37.637Z,94.30
2018-05-09T01:17:05.207Z,94.30
2018-05-09T01:19:32.745Z,94.30
2018-05-09T01:22:00.294Z,94.50
2018-05-09T01:24:27.866Z,94.40
2018-05-09T01:26:55.412Z,94.70
2018-05-09T01:29:22.987Z,94.90
2018-05-09T01:31:50.538Z,94.90
2018-05-09T01:34:18.099Z,95.30
2018-05-09T01:36:45.629Z,95.60
2018-05-09T01:39:13.212Z,95.50
2018-05-09T01:41:40.769Z,95.40
2018-05-09T01:44:08.340Z,95.60
2018-05-09T01:46:35.888Z,95.70
2018-05-09T01:49:03.467Z,95.90
2018-05-09T01:51:32.035Z,96.30
2018-05-09T01:53:59.620Z,96.80
2018-05-09T01:56:27.176Z,96.90
2018-05-09T01:58:54.742Z,97.30
2018-05-09T02:01:22.286Z,96.90
2018-05-09T02:03:49.901Z,96.80
2018-05-09T02:06:17.450Z,96.90
2018-05-09T02:08:45.019Z,97.00
2018-05-09T02:11:12.555Z,97.10
2018-05-09T02:13:40.116Z,97.00
2018-05-09T02:16:07.662Z,96.60
2018-05-09T02:18:35.232Z,96.40
2018-05-09T02:21:02.779Z,96.60
2018-05-09T02:23:30.354Z,97.00
2018-05-09T02:25:57.931Z,96.60
2018-05-09T02:28:25.476Z,97.30
2018-05-09T02:30:53.034Z,97.30
2018-05-09T02:33:20.580Z,97.20
2018-05-09T02:35:48.150Z,97.50
2018-05-09T02:38:15.681Z,97.80
2018-05-09T02:40:43.247Z,98.30
2018-05-09T02:43:10.795Z,98.30
2018-05-09T02:45:38.355Z,98.60
2018-05-09T02:48:05.912Z,98.90
2018-05-09T02:50:33.481Z,99.00
2018-05-09T02:53:01.024Z,99.10
2018-05-09T02:55:28.600Z,99.50
2018-05-09T02:57:56.153Z,99.90
2018-05-09T03:00:23.738Z,99.90
2018-05-09T03:02:51.292Z,99.90
2018-05-09T03:05:18.854Z,99.90
2018-05-09T03:07:46.410Z,99.90
2018-05-09T03:10:13.962Z,99.90
2018-05-09T03:12:41.489Z,99.90
2018-05-09T03:15:09.055Z,99.90
2018-05-09T03:17:36.590Z,99.90
2018-05-09T03:20:04.167Z,99.80
2018-05-09T03:22:31.717Z,99.50
2018-05-09T03:24:59.296Z,99.70
2018-05-09T03:27:26.873Z,99.90
2018-05-09T03:29:54.553Z,99.80
2018-05-09T03:32:22.790Z,99.90
2018-05-09T03:34:52.310Z,99.70
2018-05-09T03:37:19.882Z,99.90
2018-05-09T03:39:47.418Z,99.90
2018-05-09T03:42:15.026Z,99.90
2018-05-09T03:44:42.565Z,99.90
2018-05-09T03:47:10.132Z,99.90
2018-05-09T03:49:37.677Z,99.90
2018-05-09T03:52:06.263Z,99.90
2018-05-09T03:54:33.807Z,99.90
2018-05-09T03:57:01.378Z,99.90
2018-05-09T03:59:28.931Z,99.90
2018-05-09T04:02:08.345Z,99.90
2018-05-09T04:04:47.636Z,99.90
2018-05-09T04:07:26.888Z,99.90
2018-05-09T04:09:55.889Z,99.90
2018-05-09T04:12:24.223Z,99.90
2018-05-09T04:14:51.859Z,99.90
2018-05-09T04:17:19.354Z,99.90
2018-05-09T04:19:46.908Z,99.90
2018-05-09T04:22:14.483Z,99.90
2018-05-09T04:24:42.030Z,99.90
2018-05-09T04:27:09.585Z,99.90
2018-05-09T04:29:38.109Z,99.90
2018-05-09T04:32:05.679Z,99.90
2018-05-09T04:34:33.221Z,99.90
2018-05-09T04:37:01.571Z,99.90
2018-05-09T04:39:29.120Z,99.90
2018-05-09T04:41:56.719Z,99.90
2018-05-09T04:44:24.239Z,99.90
2018-05-09T04:46:51.807Z,99.90
2018-05-09T04:49:19.348Z,99.90
2018-05-09T04:51:46.916Z,99.90
2018-05-09T04:54:14.468Z,99.90
2018-05-09T04:56:42.025Z,99.90
2018-05-09T04:59:10.345Z,99.90
2018-05-09T05:01:38.687Z,99.90
2018-05-09T05:04:06.243Z,99.90
2018-05-09T05:06:33.815Z,99.90
2018-05-09T05:09:01.376Z,99.90
2018-05-09T05:11:28.952Z,99.90
2018-05-09T05:13:57.265Z,99.90
2018-05-09T05:16:24.806Z,99.90
2018-05-09T05:18:53.134Z,99.90
2018-05-09T05:21:20.683Z,99.90
2018-05-09T05:23:48.262Z,99.90
2018-05-09T05:26:15.799Z,99.90
2018-05-09T05:28:43.353Z,99.90
2018-05-09T05:31:10.895Z,99.90
2018-05-09T05:33:38.470Z,99.90
2018-05-09T05:36:06.016Z,99.90
2018-05-09T05:38:33.594Z,99.70
2018-05-09T05:41:01.143Z,99.70
2018-05-09T05:43:28.718Z,99.10
2018-05-09T05:45:56.268Z,98.60
2018-05-09T05:48:23.851Z,98.30
2018-05-09T05:50:51.398Z,98.00
2018-05-09T05:53:19.736Z,97.50
2018-05-09T05:55:48.060Z,96.80
2018-05-09T05:58:15.632Z,96.80
2018-05-09T06:00:43.191Z,96.10
2018-05-09T06:03:10.768Z,95.90
2018-05-09T06:05:38.313Z,95.70
2018-05-09T06:08:05.883Z,95.30
2018-05-09T06:10:33.425Z,95.40
2018-05-09T06:13:00.992Z,95.20
2018-05-09T06:15:28.555Z,94.60
2018-05-09T06:17:56.143Z,94.30
2018-05-09T06:20:24.463Z,93.90
2018-05-09T06:22:52.024Z,93.90
2018-05-09T06:25:19.590Z,93.30
2018-05-09T06:27:47.144Z,93.10
2018-05-09T06:30:14.709Z,93.00
2018-05-09T06:32:42.249Z,92.80
2018-05-09T06:35:09.823Z,92.30
2018-05-09T06:37:37.446Z,92.10
2018-05-09T06:40:04.987Z,91.70
2018-05-09T06:42:33.326Z,91.40
2018-05-09T06:45:00.907Z,91.10
2018-05-09T06:47:28.441Z,91.00
2018-05-09T06:49:56.046Z,90.60
2018-05-09T06:52:24.325Z,90.10
2018-05-09T06:54:52.659Z,90.00
2018-05-09T06:57:20.208Z,90.00
2018-05-09T06:59:47.811Z,89.40
2018-05-09T07:02:15.351Z,87.80
2018-05-09T07:04:42.930Z,87.60
2018-05-09T07:07:10.474Z,86.50
2018-05-09T07:09:38.058Z,86.30
2018-05-09T07:12:06.375Z,84.40
2018-05-09T07:14:33.944Z,84.40
2018-05-09T07:17:01.508Z,83.70
2018-05-09T07:19:29.071Z,83.10
2018-05-09T07:21:56.624Z,82.20
2018-05-09T07:24:24.203Z,80.20
2018-05-09T07:26:51.758Z,79.10
2018-05-09T07:29:19.331Z,78.70
2018-05-09T07:31:46.868Z,76.80
2018-05-09T07:34:14.426Z,75.70
2018-05-09T07:36:41.978Z,75.10
2018-05-09T07:39:09.543Z,72.50
2018-05-09T07:41:37.085Z,70.90
2018-05-09T07:44:04.631Z,69.80
2018-05-09T07:46:32.961Z,67.80
2018-05-09T07:49:00.511Z,67.80
2018-05-09T07:51:28.083Z,67.00
2018-05-09T07:53:55.630Z,66.60
2018-05-09T07:56:23.212Z,65.20
2018-05-09T07:58:50.752Z,64.70
2018-05-09T08:01:18.326Z,63.20
2018-05-09T08:03:45.891Z,63.60
2018-05-09T08:06:13.470Z,61.70
2018-05-09T08:08:41.797Z,59.70
2018-05-09T08:11:09.363Z,59.60
2018-05-09T08:13:37.694Z,61.00
2018-05-09T08:16:06.042Z,59.30
2018-05-09T08:18:33.601Z,59.30
2018-05-09T08:21:01.163Z,59.10
2018-05-09T08:23:28.731Z,58.30
2018-05-09T08:25:56.310Z,57.80
2018-05-09T08:28:24.639Z,58.20
2018-05-09T08:30:52.218Z,58.20
2018-05-09T08:33:19.775Z,57.90
2018-05-09T08:35:47.333Z,57.30
2018-05-09T08:38:14.887Z,57.80
2018-05-09T08:40:42.451Z,57.90
2018-05-09T08:43:10.079Z,56.80
2018-05-09T08:45:37.675Z,56.40
2018-05-09T08:48:05.224Z,56.80
2018-05-09T08:50:32.758Z,56.60
2018-05-09T08:53:00.322Z,57.10
2018-05-09T08:55:27.954Z,56.90
2018-05-09T08:57:55.462Z,56.40
2018-05-09T09:00:23.048Z,56.00
2018-05-09T09:02:50.617Z,55.40
2018-05-09T09:05:18.927Z,55.30
2018-05-09T09:07:46.495Z,55.30
2018-05-09T09:10:14.051Z,54.20
2018-05-09T09:12:41.602Z,53.90
2018-05-09T09:15:09.140Z,53.80
2018-05-09T09:17:37.483Z,54.00
2018-05-09T09:20:05.045Z,53.90
2018-05-09T09:22:32.614Z,53.10
2018-05-09T09:25:00.167Z,53.00
2018-05-09T09:27:27.736Z,52.40
2018-05-09T09:29:55.279Z,52.90
2018-05-09T09:32:22.856Z,52.80
2018-05-09T09:34:50.398Z,52.40
2018-05-09T09:37:17.961Z,53.00
2018-05-09T09:39:45.503Z,53.00
2018-05-09T09:42:13.061Z,52.50
2018-05-09T09:44:40.601Z,51.70
2018-05-09T09:47:08.167Z,51.10
2018-05-09T09:49:35.698Z,50.10
2018-05-09T09:52:03.243Z,50.60
2018-05-09T09:54:31.583Z,49.60
2018-05-09T09:56:59.139Z,49.60
2018-05-09T09:59:26.709Z,49.80
2018-05-09T10:01:54.263Z,49.40
2018-05-09T10:04:21.837Z,49.50
2018-05-09T10:06:49.389Z,49.50
2018-05-09T10:09:16.954Z,50.20
2018-05-09T10:11:44.489Z,50.50
2018-05-09T10:14:12.071Z,51.20
2018-05-09T10:16:39.615Z,51.30
2018-05-09T10:19:07.184Z,50.70
2018-05-09T10:21:34.721Z,49.50
2018-05-09T10:24:02.285Z,48.90
2018-05-09T10:26:29.836Z,48.20
2018-05-09T10:28:57.422Z,48.40
2018-05-09T10:31:25.010Z,48.90
2018-05-09T10:33:52.560Z,50.00
2018-05-09T10:36:20.106Z,50.10
2018-05-09T10:38:47.662Z,50.50
2018-05-09T10:41:15.208Z,49.80
2018-05-09T10:43:42.791Z,48.70
2018-05-09T10:46:10.339Z,49.30
2018-05-09T10:48:37.911Z,49.10
2018-05-09T10:51:05.459Z,49.30
2018-05-09T10:53:33.032Z,49.70
2018-05-09T10:56:00.575Z,49.90
2018-05-09T10:58:28.146Z,50.10
2018-05-09T11:00:55.690Z,49.30
2018-05-09T11:03:23.267Z,49.80
2018-05-09T11:05:50.811Z,49.00
2018-05-09T11:08:18.351Z,49.10
2018-05-09T11:10:45.905Z,48.80
2018-05-09T11:13:13.450Z,49.00
2018-05-09T11:15:41.037Z,48.30
2018-05-09T11:18:08.584Z,48.70
2018-05-09T11:20:36.146Z,46.70
2018-05-09T11:23:03.687Z,46.20
2018-05-09T11:25:31.250Z,45.60
2018-05-09T11:27:58.786Z,46.00
2018-05-09T11:30:27.122Z,44.20
2018-05-09T11:32:54.668Z,44.20
2018-05-09T11:35:22.235Z,42.70
2018-05-09T11:37:49.778Z,42.80
2018-05-09T11:40:17.348Z,40.90
2018-05-09T11:42:44.891Z,41.00
2018-05-09T11:45:12.460Z,40.50
2018-05-09T11:47:40.030Z,40.40
2018-05-09T11:50:07.607Z,41.50
2018-05-09T11:52:35.156Z,41.80
2018-05-09T11:55:02.723Z,41.10
2018-05-09T11:57:30.257Z,40.70
2018-05-09T11:59:57.801Z,40.00
2018-05-09T12:02:25.381Z,40.50
2018-05-09T12:04:52.934Z,40.50
2018-05-09T12:07:20.492Z,40.90
2018-05-09T12:09:48.029Z,41.10
2018-05-09T12:12:15.588Z,41.60
2018-05-09T12:14:43.895Z,42.60
2018-05-09T12:17:11.476Z,42.60
2018-05-09T12:19:39.035Z,42.90
2018-05-09T12:22:06.618Z,42.70
2018-05-09T12:24:35.020Z,42.60
2018-05-09T12:27:02.814Z,42.50
2018-05-09T12:29:30.372Z,41.20
2018-05-09T12:31:57.997Z,40.40
2018-05-09T12:34:25.583Z,39.50
2018-05-09T12:36:53.144Z,39.80
2018-05-09T12:39:20.700Z,39.20
2018-05-09T12:41:48.271Z,37.90
2018-05-09T12:44:15.814Z,37.30
2018-05-09T12:46:43.385Z,36.70
2018-05-09T12:49:10.969Z,36.30
2018-05-09T12:51:39.333Z,34.80
2018-05-09T12:54:06.871Z,34.90
2018-05-09T12:56:34.447Z,37.40
2018-05-09T12:59:01.995Z,38.00
2018-05-09T13:01:29.596Z,38.30
2018-05-09T13:03:57.135Z,38.40
2018-05-09T13:06:24.671Z,39.20
2018-05-09T13:08:52.246Z,38.90
2018-05-09T13:11:19.791Z,38.50
2018-05-09T13:13:47.363Z,38.70
2018-05-09T13:16:14.920Z,39.40
2018-05-09T13:18:42.486Z,37.60
2018-05-09T13:21:10.043Z,37.00
2018-05-09T13:23:37.605Z,34.80
2018-05-09T13:26:05.150Z,33.40
2018-05-09T13:28:32.718Z,33.50
2018-05-09T13:31:00.264Z,33.50
2018-05-09T13:33:27.837Z,33.00
2018-05-09T13:35:55.375Z,35.40
2018-05-09T13:38:23.704Z,35.70
2018-05-09T13:40:51.259Z,35.70
2018-05-09T13:45:52.683Z,34.00
2018-05-09T13:51:18.514Z,36.90
2018-05-09T13:53:46.169Z,39.10
2018-05-09T13:56:13.683Z,40.20
2018-05-09T13:58:41.267Z,40.50
2018-05-09T14:01:08.821Z,40.10
2018-05-09T14:03:37.189Z,37.60
2018-05-09T14:06:04.729Z,37.60
2018-05-09T14:08:32.304Z,37.40
2018-05-09T14:10:59.855Z,35.90
2018-05-09T14:13:28.207Z,35.50
2018-05-09T14:15:55.811Z,35.40
2018-05-09T14:18:23.397Z,34.50
2018-05-09T14:20:51.711Z,35.80
2018-05-09T14:23:19.276Z,35.70
2018-05-09T14:25:46.953Z,35.30
2018-05-09T14:28:14.417Z,34.00
2018-05-09T14:30:41.960Z,32.90
2018-05-09T14:33:09.523Z,31.80
2018-05-09T14:35:37.063Z,31.40
2018-05-09T14:38:04.624Z,32.00
2018-05-09T14:40:32.208Z,32.00
2018-05-09T14:42:59.756Z,31.20
2018-05-09T14:45:27.328Z,31.20
2018-05-09T14:47:54.875Z,30.60
2018-05-09T14:50:22.452Z,31.50
2018-05-09T14:52:50.119Z,32.30
2018-05-09T14:55:17.791Z,33.00
2018-05-09T14:57:45.331Z,33.70
2018-05-09T15:00:12.930Z,33.30
2018-05-09T15:02:40.476Z,33.30
2018-05-09T15:05:08.044Z,33.80
2018-05-09T15:07:36.374Z,34.30
2018-05-09T15:10:03.960Z,34.20
2018-05-09T15:12:31.511Z,34.20
2018-05-09T15:14:59.065Z,33.40
2018-05-09T15:17:26.604Z,33.00
2018-05-09T15:19:54.168Z,32.90
2018-05-09T15:22:21.711Z,33.00
2018-05-09T15:24:49.305Z,32.20
2018-05-09T15:27:16.855Z,31.40
2018-05-09T15:29:44.409Z,32.10
2018-05-09T15:32:11.952Z,31.70
2018-05-09T15:34:39.525Z,31.50
2018-05-09T15:37:07.072Z,31.70
2018-05-09T15:39:34.647Z,31.10
2018-05-09T15:42:02.205Z,30.60
2018-05-09T15:44:29.779Z,30.70
2018-05-09T15:46:57.325Z,30.50
2018-05-09T15:49:24.901Z,30.50
2018-05-09T15:51:52.449Z,29.60
2018-05-09T15:54:19.997Z,29.80
2018-05-09T15:56:47.560Z,30.50
2018-05-09T15:59:15.102Z,30.10
2018-05-09T16:01:42.671Z,30.00
2018-05-09T16:04:10.215Z,30.00
2018-05-09T16:06:37.799Z,30.00
2018-05-09T16:09:05.336Z,29.90
2018-05-09T16:11:32.945Z,30.20
2018-05-09T16:14:00.495Z,30.70
2018-05-09T16:16:28.056Z,31.50
2018-05-09T16:18:55.603Z,32.40
2018-05-09T16:21:23.170Z,32.40
2018-05-09T16:23:50.713Z,33.40
2018-05-09T16:26:18.281Z,33.00
2018-05-09T16:28:45.836Z,32.10
2018-05-09T16:31:13.403Z,31.70
2018-05-09T16:33:40.944Z,32.00
2018-05-09T16:36:08.512Z,32.80
2018-05-09T16:38:36.041Z,32.90
2018-05-09T16:41:04.394Z,34.30
2018-05-09T16:43:31.935Z,34.30
2018-05-09T16:45:59.486Z,35.60
2018-05-09T16:48:27.036Z,38.90
2018-05-09T16:50:54.652Z,37.90
2018-05-09T16:53:23.037Z,34.80
2018-05-09T16:55:50.555Z,34.80
2018-05-09T16:58:18.371Z,32.80
2018-05-09T17:00:45.933Z,33.50
2018-05-09T17:03:13.479Z,30.90
2018-05-09T17:05:41.806Z,30.00
2018-05-09T17:08:09.437Z,29.90
2018-05-09T17:10:37.000Z,29.90
2018-05-09T17:13:04.647Z,30.00
2018-05-09T17:15:32.129Z,28.30
2018-05-09T17:17:59.661Z,29.00
2018-05-09T17:20:27.964Z,30.30
2018-05-09T17:22:55.532Z,30.30
2018-05-09T17:25:23.079Z,32.50
2018-05-09T17:27:50.646Z,34.30
2018-05-09T17:30:18.217Z,33.90
2018-05-09T17:32:45.785Z,33.70
2018-05-09T17:35:13.335Z,34.10
2018-05-09T17:37:40.898Z,34.60
2018-05-09T17:40:08.443Z,37.30
2018-05-09T17:42:36.099Z,40.50
2018-05-09T17:45:03.575Z,41.20
2018-05-09T17:47:31.138Z,41.20
2018-05-09T17:49:58.680Z,42.10
2018-05-09T17:52:26.244Z,43.50
2018-05-09T17:54:53.789Z,42.80
2018-05-09T17:57:21.349Z,43.10
2018-05-09T17:59:48.893Z,43.00
2018-05-09T18:02:16.467Z,44.30
2018-05-09T18:04:44.359Z,44.70
2018-05-09T18:07:12.935Z,45.60
2018-05-09T18:09:40.481Z,47.80
2018-05-09T18:12:08.049Z,49.60
2018-05-09T18:14:35.607Z,51.30
2018-05-09T18:17:03.186Z,52.60
2018-05-09T18:19:30.726Z,53.00
2018-05-09T18:21:58.329Z,53.70
2018-05-09T18:24:25.882Z,53.60
2018-05-09T18:26:53.511Z,55.50
2018-05-09T18:29:21.791Z,57.30
2018-05-09T18:31:49.372Z,57.30
2018-05-09T18:34:16.916Z,57.30
2018-05-09T18:36:44.485Z,57.30
2018-05-09T18:39:12.794Z,58.70
2018-05-09T18:41:41.119Z,58.70
2018-05-09T18:44:08.685Z,58.70
2018-05-09T18:46:37.003Z,59.40
2018-05-09T18:49:04.583Z,59.30
2018-05-09T18:51:32.893Z,59.80
2018-05-09T18:54:00.491Z,59.80
2018-05-09T18:56:28.043Z,59.90
2018-05-09T18:58:55.619Z,60.40
2018-05-09T19:01:23.948Z,61.30
2018-05-09T19:03:51.515Z,61.30
2018-05-09T19:06:19.057Z,61.80
2018-05-09T19:08:46.629Z,61.40
2018-05-09T19:11:14.171Z,61.00
2018-05-09T19:13:41.752Z,60.40
2018-05-09T19:16:09.300Z,60.40
2018-05-09T19:18:36.873Z,60.70
2018-05-09T19:21:04.425Z,60.60
2018-05-09T19:23:31.985Z,59.90
2018-05-09T19:25:59.526Z,59.20
2018-05-09T19:28:27.104Z,59.30
2018-05-09T19:30:54.647Z,60.30
2018-05-09T19:33:22.222Z,60.90
2018-05-09T19:35:49.782Z,60.20
2018-05-09T19:38:17.352Z,59.90
2018-05-09T19:40:44.896Z,59.60
2018-05-09T19:43:12.456Z,60.00
2018-05-09T19:45:40.020Z,59.60
2018-05-09T19:48:07.594Z,59.80
2018-05-09T19:50:35.127Z,60.00
2018-05-09T19:53:02.706Z,60.50
2018-05-09T19:55:30.260Z,61.00
2018-05-09T19:57:58.147Z,62.70
2018-05-09T20:00:26.452Z,62.30
2018-05-09T20:02:54.826Z,62.40
2018-05-09T20:05:22.360Z,62.90
2018-05-09T20:07:49.907Z,62.90
2018-05-09T20:10:17.475Z,62.50
2018-05-09T20:12:45.018Z,62.60
2018-05-09T20:15:12.582Z,62.50
2018-05-09T20:17:40.113Z,61.90
2018-05-09T20:20:08.446Z,60.90
2018-05-09T20:22:35.995Z,60.80
2018-05-09T20:25:03.571Z,60.70
2018-05-09T20:27:31.119Z,61.10
2018-05-09T20:29:58.704Z,61.20
2018-05-09T20:32:32.949Z,61.40
2018-05-09T20:35:00.532Z,61.40
2018-05-09T20:37:28.074Z,61.30
2018-05-09T20:39:55.656Z,60.10
2018-05-09T20:42:23.213Z,59.30
2018-05-09T20:44:50.778Z,59.60
2018-05-09T20:47:18.327Z,61.10
2018-05-09T20:49:45.896Z,61.60
2018-05-09T20:52:13.451Z,61.30
2018-05-09T20:54:41.020Z,60.90
2018-05-09T20:57:09.328Z,61.00
2018-05-09T20:59:36.904Z,60.50
2018-05-09T21:02:05.222Z,60.50
2018-05-09T21:04:32.800Z,60.50
2018-05-09T21:07:00.359Z,60.60
2018-05-09T21:09:27.918Z,60.60
2018-05-09T21:12:07.931Z,59.50
2018-05-09T21:14:35.701Z,59.50
2018-05-09T21:17:03.186Z,59.50
2018-05-09T21:19:30.755Z,61.10
2018-05-09T21:21:58.319Z,63.00
2018-05-09T21:24:25.891Z,63.50
2018-05-09T21:26:53.437Z,63.20
2018-05-09T21:29:21.000Z,62.90
2018-05-09T21:31:48.564Z,63.10
2018-05-09T21:34:17.755Z,62.00
2018-05-09T21:36:46.095Z,65.30
2018-05-09T21:39:13.630Z,65.30
2018-05-09T21:41:41.965Z,65.00
2018-05-09T21:44:10.275Z,66.50
2018-05-09T21:46:38.604Z,66.40
2018-05-09T21:49:06.162Z,66.30
2018-05-09T21:51:33.723Z,67.20
2018-05-09T21:54:01.270Z,67.40
2018-05-09T21:56:28.864Z,68.20
2018-05-09T21:58:56.414Z,68.20
2018-05-09T22:01:23.983Z,70.30
2018-05-09T22:03:51.539Z,70.30
2018-05-09T22:06:19.112Z,70.40
2018-05-09T22:08:46.657Z,70.60
2018-05-09T22:11:14.235Z,70.00
2018-05-09T22:13:41.785Z,71.30
2018-05-09T22:16:09.346Z,72.10
2018-05-09T22:18:36.907Z,71.40
2018-05-09T22:21:04.487Z,72.10
2018-05-09T22:23:32.796Z,73.40
2018-05-09T22:26:00.359Z,73.40
2018-05-09T22:28:27.917Z,72.80
2018-05-09T22:30:55.483Z,73.70
2018-05-09T22:33:23.031Z,73.80
2018-05-09T22:35:50.611Z,74.50
2018-05-09T22:38:18.155Z,74.70
2018-05-09T22:40:45.714Z,74.30
2018-05-09T22:43:13.267Z,74.50
2018-05-09T22:45:40.823Z,75.10
2018-05-09T22:48:08.379Z,76.30
2018-05-09T22:50:36.711Z,74.70
2018-05-09T22:53:04.254Z,74.70
2018-05-09T22:55:31.822Z,76.20
2018-05-09T22:57:59.369Z,76.90
2018-05-09T23:00:26.975Z,77.30
2018-05-09T23:02:55.288Z,78.80
2018-05-09T23:05:22.838Z,78.80
2018-05-09T23:07:50.432Z,79.00
2018-05-09T23:10:18.079Z,78.90
2018-05-09T23:12:46.365Z,81.20
2018-05-09T23:15:13.915Z,81.20
2018-05-09T23:17:41.496Z,82.70
2018-05-09T23:20:09.041Z,82.70
2018-05-09T23:22:36.598Z,82.60
2018-05-09T23:25:04.146Z,83.10
2018-05-09T23:27:31.712Z,84.00
2018-05-09T23:29:59.251Z,84.20
2018-05-09T23:32:26.819Z,84.80
2018-05-09T23:34:54.375Z,84.20
2018-05-09T23:37:21.955Z,82.70
2018-05-09T23:39:49.494Z,83.70
2018-05-09T23:42:17.069Z,85.20
2018-05-09T23:44:44.601Z,85.80
2018-05-09T23:47:12.950Z,86.50
2018-05-09T23:49:40.499Z,86.30
2018-05-09T23:52:08.105Z,86.80
2018-05-09T23:54:35.655Z,86.80
2018-05-09T23:57:04.032Z,86.90
2018-05-09T23:59:32.336Z,88.40
